sensor_id;sensor_type;location;lat;lon;timestamp;pressure;altitude;pressure_sealevel;temperature;humidity
59877;BME280;45749;51.140;17.184;2023-01-28T00:01:14;100799.22;;;0.82;100.00
59877;BME280;45749;51.140;17.184;2023-01-28T00:03:40;100783.06;;;0.71;100.00
59877;BME280;45749;51.140;17.184;2023-01-28T00:06:09;100798.41;;;0.80;100.00
59877;BME280;45749;51.140;17.184;2023-01-28T00:08:35;100800.13;;;0.81;100.00
59877;BME280;45749;51.140;17.184;2023-01-28T00:11:03;100804.47;;;0.81;100.00
59877;BME280;45749;51.140;17.184;2023-01-28T00:13:29;100801.91;;;0.79;100.00
59877;BME280;45749;51.140;17.184;2023-01-28T00:15:56;100786.63;;;0.67;100.00
59877;BME280;45749;51.140;17.184;2023-01-28T00:18:24;100786.63;;;0.67;100.00
59877;BME280;45749;51.140;17.184;2023-01-28T00:21:08;100794.16;;;0.78;100.00
59877;BME280;45749;51.140;17.184;2023-01-28T00:23:35;100799.31;;;0.79;100.00
59877;BME280;45749;51.140;17.184;2023-01-28T00:26:03;100795.84;;;0.79;100.00
59877;BME280;45749;51.140;17.184;2023-01-28T00:28:32;100795.84;;;0.79;100.00
59877;BME280;45749;51.140;17.184;2023-01-28T00:31:05;100793.25;;;0.79;100.00
59877;BME280;45749;51.140;17.184;2023-01-28T00:33:31;100777.94;;;0.68;100.00
59877;BME280;45749;51.140;17.184;2023-01-28T00:35:58;100796.66;;;0.81;100.00
59877;BME280;45749;51.140;17.184;2023-01-28T00:38:24;100789.72;;;0.81;100.00
59877;BME280;45749;51.140;17.184;2023-01-28T00:40:49;100788.88;;;0.81;100.00
59877;BME280;45749;51.140;17.184;2023-01-28T00:43:15;100784.50;;;0.83;100.00
59877;BME280;45749;51.140;17.184;2023-01-28T00:45:40;100785.34;;;0.83;100.00
59877;BME280;45749;51.140;17.184;2023-01-28T00:48:05;100777.78;;;0.74;100.00
59877;BME280;45749;51.140;17.184;2023-01-28T00:50:31;100781.22;;;0.76;100.00
59877;BME280;45749;51.140;17.184;2023-01-28T00:52:56;100765.88;;;0.65;100.00
59877;BME280;45749;51.140;17.184;2023-01-28T00:55:22;100766.75;;;0.64;100.00
59877;BME280;45749;51.140;17.184;2023-01-28T00:57:47;100776.97;;;0.72;100.00
59877;BME280;45749;51.140;17.184;2023-01-28T01:00:13;100762.41;;;0.65;100.00
59877;BME280;45749;51.140;17.184;2023-01-28T01:02:39;100774.34;;;0.72;100.00
59877;BME280;45749;51.140;17.184;2023-01-28T01:05:05;100781.28;;;0.73;100.00
59877;BME280;45749;51.140;17.184;2023-01-28T01:07:30;100776.22;;;0.67;100.00
59877;BME280;45749;51.140;17.184;2023-01-28T01:10:13;100788.25;;;0.71;100.00
59877;BME280;45749;51.140;17.184;2023-01-28T01:12:40;100791.75;;;0.70;100.00
59877;BME280;45749;51.140;17.184;2023-01-28T01:15:07;100785.84;;;0.63;100.00
59877;BME280;45749;51.140;17.184;2023-01-28T01:17:33;100778.06;;;0.62;100.00
59877;BME280;45749;51.140;17.184;2023-01-28T01:20:02;100792.53;;;0.72;100.00
59877;BME280;45749;51.140;17.184;2023-01-28T01:22:28;100792.53;;;0.72;100.00
59877;BME280;45749;51.140;17.184;2023-01-28T01:24:55;100792.72;;;0.66;100.00
59877;BME280;45749;51.140;17.184;2023-01-28T01:27:21;100793.44;;;0.71;100.00
59877;BME280;45749;51.140;17.184;2023-01-28T01:29:46;100799.53;;;0.70;100.00
59877;BME280;45749;51.140;17.184;2023-01-28T01:32:12;100799.63;;;0.65;100.00
59877;BME280;45749;51.140;17.184;2023-01-28T01:34:37;100792.88;;;0.58;100.00
59877;BME280;45749;51.140;17.184;2023-01-28T01:37:02;100804.03;;;0.63;100.00
59877;BME280;45749;51.140;17.184;2023-01-28T01:39:30;100790.41;;;0.54;100.00
59877;BME280;45749;51.140;17.184;2023-01-28T01:41:55;100815.38;;;0.59;100.00
59877;BME280;45749;51.140;17.184;2023-01-28T01:52:59;100817.50;;;0.42;100.00
59877;BME280;45749;51.140;17.184;2023-01-28T01:55:29;100832.09;;;0.47;100.00
59877;BME280;45749;51.140;17.184;2023-01-28T01:57:57;100829.50;;;0.46;100.00
59877;BME280;45749;51.140;17.184;2023-01-28T02:00:26;100833.94;;;0.42;100.00
59877;BME280;45749;51.140;17.184;2023-01-28T02:02:52;100833.13;;;0.40;100.00
59877;BME280;45749;51.140;17.184;2023-01-28T02:05:20;100822.91;;;0.33;100.00
59877;BME280;45749;51.140;17.184;2023-01-28T02:07:47;100827.19;;;0.35;100.00
59877;BME280;45749;51.140;17.184;2023-01-28T02:10:14;100830.63;;;0.36;100.00
59877;BME280;45749;51.140;17.184;2023-01-28T02:12:46;100836.66;;;0.38;100.00
59877;BME280;45749;51.140;17.184;2023-01-28T02:15:24;100834.13;;;0.35;100.00
59877;BME280;45749;51.140;17.184;2023-01-28T02:17:50;100829.84;;;0.32;100.00
59877;BME280;45749;51.140;17.184;2023-01-28T02:31:57;100831.66;;;0.29;100.00
59877;BME280;45749;51.140;17.184;2023-01-28T02:34:42;100837.56;;;0.35;100.00
59877;BME280;45749;51.140;17.184;2023-01-28T02:39:51;100834.19;;;0.32;100.00
59877;BME280;45749;51.140;17.184;2023-01-28T02:42:24;100835.88;;;0.34;100.00
59877;BME280;45749;51.140;17.184;2023-01-28T02:44:51;100835.81;;;0.36;100.00
59877;BME280;45749;51.140;17.184;2023-01-28T02:47:16;100843.66;;;0.34;100.00
59877;BME280;45749;51.140;17.184;2023-01-28T02:50:03;100836.72;;;0.35;100.00
59877;BME280;45749;51.140;17.184;2023-01-28T02:55:39;100841.94;;;0.33;100.00
59877;BME280;45749;51.140;17.184;2023-01-28T03:00:52;100848.78;;;0.37;100.00
59877;BME280;45749;51.140;17.184;2023-01-28T03:03:32;100845.34;;;0.35;100.00
59877;BME280;45749;51.140;17.184;2023-01-28T03:06:09;100841.88;;;0.36;100.00
59877;BME280;45749;51.140;17.184;2023-01-28T03:11:25;100847.88;;;0.38;100.00
59877;BME280;45749;51.140;17.184;2023-01-28T03:14:11;100843.66;;;0.34;100.00
59877;BME280;45749;51.140;17.184;2023-01-28T03:16:58;100843.66;;;0.33;100.00
59877;BME280;45749;51.140;17.184;2023-01-28T03:19:43;100844.63;;;0.30;100.00
59877;BME280;45749;51.140;17.184;2023-01-28T03:22:28;100849.03;;;0.25;100.00
59877;BME280;45749;51.140;17.184;2023-01-28T03:25:18;100843.09;;;0.20;100.00
59877;BME280;45749;51.140;17.184;2023-01-28T03:28:04;100855.94;;;0.26;100.00
59877;BME280;45749;51.140;17.184;2023-01-28T03:30:57;100849.03;;;0.27;100.00
59877;BME280;45749;51.140;17.184;2023-01-28T03:33:44;100855.94;;;0.26;100.00
59877;BME280;45749;51.140;17.184;2023-01-28T03:36:29;100850.81;;;0.23;100.00
59877;BME280;45749;51.140;17.184;2023-01-28T03:39:14;100854.28;;;0.22;100.00
59877;BME280;45749;51.140;17.184;2023-01-28T03:41:39;100844.88;;;0.18;100.00
59877;BME280;45749;51.140;17.184;2023-01-28T03:44:05;100852.53;;;0.22;100.00
59877;BME280;45749;51.140;17.184;2023-01-28T03:46:49;100854.28;;;0.22;100.00
59877;BME280;45749;51.140;17.184;2023-01-28T03:49:15;100855.22;;;0.19;100.00
59877;BME280;45749;51.140;17.184;2023-01-28T03:51:41;100856.94;;;0.19;100.00
59877;BME280;45749;51.140;17.184;2023-01-28T03:54:06;100850.19;;;0.12;100.00
59877;BME280;45749;51.140;17.184;2023-01-28T03:56:32;100854.47;;;0.13;100.00
59877;BME280;45749;51.140;17.184;2023-01-28T03:59:02;100860.50;;;0.15;100.00
59877;BME280;45749;51.140;17.184;2023-01-28T04:01:28;100857.06;;;0.13;100.00
59877;BME280;45749;51.140;17.184;2023-01-28T04:03:53;100844.97;;;0.13;100.00
59877;BME280;45749;51.140;17.184;2023-01-28T04:06:19;100852.72;;;0.15;100.00
59877;BME280;45749;51.140;17.184;2023-01-28T04:08:44;100857.00;;;0.16;100.00
59877;BME280;45749;51.140;17.184;2023-01-28T04:11:13;100862.25;;;0.14;100.00
59877;BME280;45749;51.140;17.184;2023-01-28T04:13:45;100865.69;;;0.15;100.00
59877;BME280;45749;51.140;17.184;2023-01-28T04:16:12;100868.28;;;0.15;100.00
59877;BME280;45749;51.140;17.184;2023-01-28T04:18:37;100856.28;;;0.11;100.00
59877;BME280;45749;51.140;17.184;2023-01-28T04:21:03;100865.63;;;0.18;100.00
59877;BME280;45749;51.140;17.184;2023-01-28T04:23:29;100874.28;;;0.18;100.00
59877;BME280;45749;51.140;17.184;2023-01-28T04:25:54;100876.00;;;0.18;100.00
59877;BME280;45749;51.140;17.184;2023-01-28T04:28:20;100860.56;;;0.12;100.00
59877;BME280;45749;51.140;17.184;2023-01-28T04:30:46;100875.16;;;0.17;100.00
59877;BME280;45749;51.140;17.184;2023-01-28T04:33:11;100870.00;;;0.16;100.00
59877;BME280;45749;51.140;17.184;2023-01-28T04:35:37;100869.19;;;0.12;100.00
59877;BME280;45749;51.140;17.184;2023-01-28T04:38:02;100880.38;;;0.16;100.00
59877;BME280;45749;51.140;17.184;2023-01-28T04:40:28;100878.72;;;0.13;100.00
59877;BME280;45749;51.140;17.184;2023-01-28T04:42:54;100877.78;;;0.16;100.00
59877;BME280;45749;51.140;17.184;2023-01-28T04:45:20;100877.00;;;0.12;100.00
59877;BME280;45749;51.140;17.184;2023-01-28T04:47:46;100869.25;;;0.11;100.00
59877;BME280;45749;51.140;17.184;2023-01-28T04:50:11;100885.63;;;0.14;100.00
59877;BME280;45749;51.140;17.184;2023-01-28T04:52:37;100886.34;;;0.19;100.00
59877;BME280;45749;51.140;17.184;2023-01-28T04:55:02;100883.75;;;0.21;100.00
59877;BME280;45749;51.140;17.184;2023-01-28T04:57:28;100895.03;;;0.18;100.00
59877;BME280;45749;51.140;17.184;2023-01-28T04:59:53;100895.03;;;0.18;100.00
59877;BME280;45749;51.140;17.184;2023-01-28T05:02:19;100898.53;;;0.17;100.00
59877;BME280;45749;51.140;17.184;2023-01-28T05:04:44;100900.28;;;0.15;100.00
59877;BME280;45749;51.140;17.184;2023-01-28T05:07:10;100894.25;;;0.15;100.00
59877;BME280;45749;51.140;17.184;2023-01-28T05:09:35;100896.88;;;0.13;100.00
59877;BME280;45749;51.140;17.184;2023-01-28T05:12:01;100898.66;;;0.10;100.00
59877;BME280;45749;51.140;17.184;2023-01-28T05:14:26;100901.25;;;0.10;100.00
59877;BME280;45749;51.140;17.184;2023-01-28T05:16:52;100901.25;;;0.10;100.00
59877;BME280;45749;51.140;17.184;2023-01-28T05:19:18;100903.00;;;0.09;100.00
59877;BME280;45749;51.140;17.184;2023-01-28T05:21:43;100897.03;;;0.06;100.00
59877;BME280;45749;51.140;17.184;2023-01-28T05:24:09;100905.69;;;0.05;100.00
59877;BME280;45749;51.140;17.184;2023-01-28T05:26:34;100908.28;;;0.05;100.00
59877;BME280;45749;51.140;17.184;2023-01-28T05:29:01;100903.28;;;-0.05;100.00
59877;BME280;45749;51.140;17.184;2023-01-28T05:31:27;100912.69;;;0.01;100.00
59877;BME280;45749;51.140;17.184;2023-01-28T05:33:52;100910.16;;;-0.04;100.00
59877;BME280;45749;51.140;17.184;2023-01-28T05:36:18;100912.72;;;-0.01;100.00
59877;BME280;45749;51.140;17.184;2023-01-28T05:38:43;100903.38;;;-0.09;100.00
59877;BME280;45749;51.140;17.184;2023-01-28T05:41:09;100917.09;;;-0.04;100.00
59877;BME280;45749;51.140;17.184;2023-01-28T05:43:35;100924.94;;;-0.07;100.00
59877;BME280;45749;51.140;17.184;2023-01-28T05:46:00;100918.09;;;-0.10;100.00
59877;BME280;45749;51.140;17.184;2023-01-28T05:48:26;100922.41;;;-0.10;100.00
59877;BME280;45749;51.140;17.184;2023-01-28T05:50:51;100924.16;;;-0.11;100.00
59877;BME280;45749;51.140;17.184;2023-01-28T05:53:16;100927.59;;;-0.10;100.00
59877;BME280;45749;51.140;17.184;2023-01-28T05:55:42;100925.88;;;-0.10;100.00
59877;BME280;45749;51.140;17.184;2023-01-28T05:58:07;100916.38;;;-0.11;100.00
59877;BME280;45749;51.140;17.184;2023-01-28T06:00:33;100920.69;;;-0.10;100.00
59877;BME280;45749;51.140;17.184;2023-01-28T06:02:58;100925.75;;;-0.04;100.00
59877;BME280;45749;51.140;17.184;2023-01-28T06:05:24;100923.16;;;-0.04;100.00
59877;BME280;45749;51.140;17.184;2023-01-28T06:07:49;100930.03;;;-0.01;100.00
59877;BME280;45749;51.140;17.184;2023-01-28T06:10:15;100924.03;;;-0.05;100.00
59877;BME280;45749;51.140;17.184;2023-01-28T06:12:43;100927.53;;;-0.06;100.00
59877;BME280;45749;51.140;17.184;2023-01-28T06:15:09;100932.69;;;-0.04;100.00
59877;BME280;45749;51.140;17.184;2023-01-28T06:17:35;100915.56;;;-0.14;100.00
59877;BME280;45749;51.140;17.184;2023-01-28T06:20:01;100928.53;;;-0.13;100.00
59877;BME280;45749;51.140;17.184;2023-01-28T06:22:26;100941.34;;;-0.05;100.00
59877;BME280;45749;51.140;17.184;2023-01-28T06:24:52;100935.31;;;-0.06;100.00
59877;BME280;45749;51.140;17.184;2023-01-28T06:27:17;100933.66;;;-0.10;100.00
59877;BME280;45749;51.140;17.184;2023-01-28T06:29:42;100935.38;;;-0.09;100.00
59877;BME280;45749;51.140;17.184;2023-01-28T06:32:08;100944.91;;;-0.11;100.00
59877;BME280;45749;51.140;17.184;2023-01-28T06:34:33;100940.63;;;-0.12;100.00
59877;BME280;45749;51.140;17.184;2023-01-28T06:36:59;100940.66;;;-0.15;100.00
59877;BME280;45749;51.140;17.184;2023-01-28T06:39:24;100950.13;;;-0.12;100.00
59877;BME280;45749;51.140;17.184;2023-01-28T06:41:52;100959.63;;;-0.10;100.00
59877;BME280;45749;51.140;17.184;2023-01-28T06:44:17;100951.84;;;-0.11;100.00
59877;BME280;45749;51.140;17.184;2023-01-28T06:46:43;100952.69;;;-0.11;100.00
59877;BME280;45749;51.140;17.184;2023-01-28T06:49:08;100960.41;;;-0.08;100.00
59877;BME280;45749;51.140;17.184;2023-01-28T06:51:33;100964.72;;;-0.07;100.00
59877;BME280;45749;51.140;17.184;2023-01-28T06:53:59;100962.22;;;-0.11;100.00
59877;BME280;45749;51.140;17.184;2023-01-28T06:56:24;100964.72;;;-0.07;100.00
59877;BME280;45749;51.140;17.184;2023-01-28T06:58:51;100966.44;;;-0.06;100.00
59877;BME280;45749;51.140;17.184;2023-01-28T07:01:17;100969.91;;;-0.07;100.00
59877;BME280;45749;51.140;17.184;2023-01-28T07:03:42;100959.66;;;-0.13;100.00
59877;BME280;45749;51.140;17.184;2023-01-28T07:06:08;100969.06;;;-0.07;100.00
59877;BME280;45749;51.140;17.184;2023-01-28T07:08:33;100978.59;;;-0.08;100.00
59877;BME280;45749;51.140;17.184;2023-01-28T07:10:59;100979.47;;;-0.09;100.00
59877;BME280;45749;51.140;17.184;2023-01-28T07:13:25;100985.56;;;-0.10;100.00
59877;BME280;45749;51.140;17.184;2023-01-28T07:15:51;100986.41;;;-0.11;100.00
59877;BME280;45749;51.140;17.184;2023-01-28T07:18:16;100996.00;;;-0.14;100.00
59877;BME280;45749;51.140;17.184;2023-01-28T07:20:42;100990.06;;;-0.19;100.00
59877;BME280;45749;51.140;17.184;2023-01-28T07:23:07;100991.84;;;-0.23;100.00
59877;BME280;45749;51.140;17.184;2023-01-28T07:25:33;100988.38;;;-0.22;100.00
59877;BME280;45749;51.140;17.184;2023-01-28T07:28:00;101010.81;;;-0.21;100.00
59877;BME280;45749;51.140;17.184;2023-01-28T07:30:25;101010.00;;;-0.23;100.00
59877;BME280;45749;51.140;17.184;2023-01-28T07:32:55;101006.53;;;-0.24;100.00
59877;BME280;45749;51.140;17.184;2023-01-28T07:35:20;101003.97;;;-0.27;100.00
59877;BME280;45749;51.140;17.184;2023-01-28T07:37:53;101005.72;;;-0.26;100.00
59877;BME280;45749;51.140;17.184;2023-01-28T07:40:19;101006.56;;;-0.25;100.00
59877;BME280;45749;51.140;17.184;2023-01-28T07:42:46;101005.69;;;-0.24;100.00
59877;BME280;45749;51.140;17.184;2023-01-28T07:45:11;101007.41;;;-0.25;100.00
59877;BME280;45749;51.140;17.184;2023-01-28T07:47:37;101010.00;;;-0.25;100.00
59877;BME280;45749;51.140;17.184;2023-01-28T07:50:03;101003.09;;;-0.24;100.00
59877;BME280;45749;51.140;17.184;2023-01-28T07:52:28;101001.38;;;-0.25;100.00
59877;BME280;45749;51.140;17.184;2023-01-28T07:54:54;101000.50;;;-0.24;100.00
59877;BME280;45749;51.140;17.184;2023-01-28T07:57:19;101001.34;;;-0.24;100.00
59877;BME280;45749;51.140;17.184;2023-01-28T07:59:50;101003.09;;;-0.24;100.00
59877;BME280;45749;51.140;17.184;2023-01-28T08:02:16;101010.88;;;-0.24;100.00
59877;BME280;45749;51.140;17.184;2023-01-28T08:04:42;101004.88;;;-0.26;100.00
59877;BME280;45749;51.140;17.184;2023-01-28T08:07:07;101014.31;;;-0.24;100.00
59877;BME280;45749;51.140;17.184;2023-01-28T08:09:33;101009.22;;;-0.30;100.00
59877;BME280;45749;51.140;17.184;2023-01-28T08:12:00;101021.28;;;-0.27;100.00
59877;BME280;45749;51.140;17.184;2023-01-28T08:14:26;101012.66;;;-0.28;100.00
59877;BME280;45749;51.140;17.184;2023-01-28T08:16:52;101016.16;;;-0.29;100.00
59877;BME280;45749;51.140;17.184;2023-01-28T08:19:17;101019.59;;;-0.28;100.00
59877;BME280;45749;51.140;17.184;2023-01-28T08:21:43;101023.88;;;-0.27;100.00
59877;BME280;45749;51.140;17.184;2023-01-28T08:24:08;101017.00;;;-0.28;100.00
59877;BME280;45749;51.140;17.184;2023-01-28T08:26:34;101019.53;;;-0.25;100.00
59877;BME280;45749;51.140;17.184;2023-01-28T08:28:59;101021.28;;;-0.26;100.00
59877;BME280;45749;51.140;17.184;2023-01-28T08:31:24;101021.34;;;-0.29;100.00
59877;BME280;45749;51.140;17.184;2023-01-28T08:33:50;101020.44;;;-0.28;100.00
59877;BME280;45749;51.140;17.184;2023-01-28T08:36:15;101014.41;;;-0.28;100.00
59877;BME280;45749;51.140;17.184;2023-01-28T08:38:41;101024.78;;;-0.30;100.00
59877;BME280;45749;51.140;17.184;2023-01-28T08:41:07;101028.25;;;-0.29;100.00
59877;BME280;45749;51.140;17.184;2023-01-28T08:43:32;101025.63;;;-0.26;100.00
59877;BME280;45749;51.140;17.184;2023-01-28T08:45:58;101026.44;;;-0.24;100.00
59877;BME280;45749;51.140;17.184;2023-01-28T08:48:23;101023.84;;;-0.24;100.00
59877;BME280;45749;51.140;17.184;2023-01-28T08:50:49;101022.13;;;-0.25;100.00
59877;BME280;45749;51.140;17.184;2023-01-28T08:53:17;101025.63;;;-0.26;100.00
59877;BME280;45749;51.140;17.184;2023-01-28T08:55:44;101035.09;;;-0.25;100.00
59877;BME280;45749;51.140;17.184;2023-01-28T08:58:13;101014.50;;;-0.34;100.00
59877;BME280;45749;51.140;17.184;2023-01-28T09:00:39;101038.59;;;-0.28;100.00
59877;BME280;45749;51.140;17.184;2023-01-28T09:03:05;101027.31;;;-0.27;100.00
59877;BME280;45749;51.140;17.184;2023-01-28T09:05:31;101029.91;;;-0.25;100.00
59877;BME280;45749;51.140;17.184;2023-01-28T09:08:03;101027.31;;;-0.27;100.00
59877;BME280;45749;51.140;17.184;2023-01-28T09:10:29;101026.47;;;-0.27;100.00
59877;BME280;45749;51.140;17.184;2023-01-28T09:12:54;101029.13;;;-0.29;100.00
59877;BME280;45749;51.140;17.184;2023-01-28T09:15:20;101034.25;;;-0.27;100.00
59877;BME280;45749;51.140;17.184;2023-01-28T09:17:45;101032.56;;;-0.30;100.00
59877;BME280;45749;51.140;17.184;2023-01-28T09:20:11;101024.03;;;-0.35;100.00
59877;BME280;45749;51.140;17.184;2023-01-28T09:22:37;101045.53;;;-0.30;100.00
59877;BME280;45749;51.140;17.184;2023-01-28T09:25:03;101045.53;;;-0.30;100.00
59877;BME280;45749;51.140;17.184;2023-01-28T09:27:28;101045.56;;;-0.31;100.00
59877;BME280;45749;51.140;17.184;2023-01-28T09:29:54;101047.31;;;-0.32;100.00
59877;BME280;45749;51.140;17.184;2023-01-28T09:32:19;101043.06;;;-0.37;100.00
59877;BME280;45749;51.140;17.184;2023-01-28T09:34:44;101051.66;;;-0.32;100.00
59877;BME280;45749;51.140;17.184;2023-01-28T09:37:10;101055.09;;;-0.33;100.00
59877;BME280;45749;51.140;17.184;2023-01-28T09:39:36;101061.13;;;-0.31;100.00
59877;BME280;45749;51.140;17.184;2023-01-28T09:47:31;101056.84;;;-0.32;100.00
59877;BME280;45749;51.140;17.184;2023-01-28T09:50:02;101059.44;;;-0.32;100.00
59877;BME280;45749;51.140;17.184;2023-01-28T09:52:33;101050.81;;;-0.34;100.00
59877;BME280;45749;51.140;17.184;2023-01-28T09:58:02;101056.03;;;-0.36;100.00
59877;BME280;45749;51.140;17.184;2023-01-28T10:19:40;101055.16;;;-0.35;100.00
59877;BME280;45749;51.140;17.184;2023-01-28T10:22:34;101061.16;;;-0.33;100.00
59877;BME280;45749;51.140;17.184;2023-01-28T10:25:13;101051.66;;;-0.32;100.00
59877;BME280;45749;51.140;17.184;2023-01-28T10:27:42;101043.88;;;-0.32;100.00
59877;BME280;45749;51.140;17.184;2023-01-28T10:30:31;101052.50;;;-0.32;100.00
59877;BME280;45749;51.140;17.184;2023-01-28T10:33:03;101049.13;;;-0.37;100.00
59877;BME280;45749;51.140;17.184;2023-01-28T10:35:39;101043.13;;;-0.40;100.00
59877;BME280;45749;51.140;17.184;2023-01-28T10:38:09;101051.75;;;-0.38;100.00
59877;BME280;45749;51.140;17.184;2023-01-28T10:40:39;101051.75;;;-0.40;100.00
59877;BME280;45749;51.140;17.184;2023-01-28T10:43:05;101052.59;;;-0.38;100.00
59877;BME280;45749;51.140;17.184;2023-01-28T10:45:41;101037.97;;;-0.43;100.00
59877;BME280;45749;51.140;17.184;2023-01-28T10:50:56;101052.47;;;-0.29;100.00
59877;BME280;45749;51.140;17.184;2023-01-28T10:53:36;101052.41;;;-0.27;100.00
59877;BME280;45749;51.140;17.184;2023-01-28T10:56:04;101042.13;;;-0.33;100.00
59877;BME280;45749;51.140;17.184;2023-01-28T10:58:33;101055.00;;;-0.27;100.00
59877;BME280;45749;51.140;17.184;2023-01-28T11:01:02;101061.03;;;-0.27;100.00
59877;BME280;45749;51.140;17.184;2023-01-28T11:03:29;101047.31;;;-0.32;100.00
59877;BME280;45749;51.140;17.184;2023-01-28T11:06:00;101052.50;;;-0.32;100.00
59877;BME280;45749;51.140;17.184;2023-01-28T11:08:28;101059.44;;;-0.34;100.00
59877;BME280;45749;51.140;17.184;2023-01-28T11:10:55;101061.19;;;-0.34;100.00
59877;BME280;45749;51.140;17.184;2023-01-28T11:13:22;101056.00;;;-0.34;100.00
59877;BME280;45749;51.140;17.184;2023-01-28T11:15:50;101058.53;;;-0.31;100.00
59877;BME280;45749;51.140;17.184;2023-01-28T11:18:27;101055.16;;;-0.35;100.00
59877;BME280;45749;51.140;17.184;2023-01-28T11:20:59;101061.09;;;-0.30;100.00
59877;BME280;45749;51.140;17.184;2023-01-28T11:23:39;101057.63;;;-0.29;100.00
59877;BME280;45749;51.140;17.184;2023-01-28T11:26:16;101052.50;;;-0.33;100.00
59877;BME280;45749;51.140;17.184;2023-01-28T11:28:42;101052.50;;;-0.32;100.00
59877;BME280;45749;51.140;17.184;2023-01-28T11:31:10;101057.69;;;-0.32;100.00
59877;BME280;45749;51.140;17.184;2023-01-28T11:33:41;101045.56;;;-0.31;100.00
59877;BME280;45749;51.140;17.184;2023-01-28T11:36:14;101054.19;;;-0.29;100.00
59877;BME280;45749;51.140;17.184;2023-01-28T11:41:15;101055.84;;;-0.27;100.00
59877;BME280;45749;51.140;17.184;2023-01-28T11:43:41;101050.72;;;-0.28;100.00
59877;BME280;45749;51.140;17.184;2023-01-28T11:46:25;101055.84;;;-0.27;100.00
59877;BME280;45749;51.140;17.184;2023-01-28T11:51:46;101055.91;;;-0.30;100.00
59877;BME280;45749;51.140;17.184;2023-01-28T12:05:31;101063.00;;;-0.39;100.00
59877;BME280;45749;51.140;17.184;2023-01-28T12:14:21;101057.03;;;-0.44;100.00
59877;BME280;45749;51.140;17.184;2023-01-28T12:20:00;101051.84;;;-0.44;100.00
59877;BME280;45749;51.140;17.184;2023-01-28T12:41:21;101037.25;;;-0.52;100.00
59877;BME280;45749;51.140;17.184;2023-01-28T12:46:46;101051.13;;;-0.54;100.00
59877;BME280;45749;51.140;17.184;2023-01-28T12:49:23;101053.75;;;-0.57;99.93
59877;BME280;45749;51.140;17.184;2023-01-28T12:51:52;101058.13;;;-0.61;99.47
59877;BME280;45749;51.140;17.184;2023-01-28T12:54:25;101054.72;;;-0.64;99.28
59877;BME280;45749;51.140;17.184;2023-01-28T12:56:53;101058.22;;;-0.65;99.98
59877;BME280;45749;51.140;17.184;2023-01-28T12:59:27;101059.91;;;-0.64;99.77
59877;BME280;45749;51.140;17.184;2023-01-28T13:09:52;101062.56;;;-0.67;99.28
59877;BME280;45749;51.140;17.184;2023-01-28T13:12:20;101060.84;;;-0.68;99.32
59877;BME280;45749;51.140;17.184;2023-01-28T13:14:47;101057.47;;;-0.74;98.91
59877;BME280;45749;51.140;17.184;2023-01-28T13:17:28;101053.16;;;-0.75;98.64
59877;BME280;45749;51.140;17.184;2023-01-28T13:19:54;101064.41;;;-0.77;98.72
59877;BME280;45749;51.140;17.184;2023-01-28T13:22:34;101057.59;;;-0.83;98.80
59877;BME280;45749;51.140;17.184;2023-01-28T13:25:34;101064.41;;;-0.77;98.70
59877;BME280;45749;51.140;17.184;2023-01-28T13:28:03;101062.72;;;-0.78;98.67
59877;BME280;45749;51.140;17.184;2023-01-28T13:30:34;101063.56;;;-0.78;98.81
59877;BME280;45749;51.140;17.184;2023-01-28T13:33:34;101063.53;;;-0.76;99.09
59877;BME280;45749;51.140;17.184;2023-01-28T13:36:24;101056.59;;;-0.74;99.46
59877;BME280;45749;51.140;17.184;2023-01-28T13:42:45;101063.56;;;-0.78;98.51
59877;BME280;45749;51.140;17.184;2023-01-28T13:44:39;101055.88;;;-0.82;98.15
59877;BME280;45749;51.140;17.184;2023-01-28T13:49:48;101076.59;;;-0.82;98.43
59877;BME280;45749;51.140;17.184;2023-01-28T13:52:28;101071.41;;;-0.82;98.15
59877;BME280;45749;51.140;17.184;2023-01-28T14:00:32;101069.69;;;-0.83;98.63
59877;BME280;45749;51.140;17.184;2023-01-28T14:08:37;101081.78;;;-0.82;98.46
59877;BME280;45749;51.140;17.184;2023-01-28T14:16:40;101092.19;;;-0.87;97.96
59877;BME280;45749;51.140;17.184;2023-01-28T14:19:11;101093.09;;;-0.88;97.91
59877;BME280;45749;51.140;17.184;2023-01-28T14:21:38;101095.72;;;-0.91;98.16
59877;BME280;45749;51.140;17.184;2023-01-28T14:24:03;101099.97;;;-0.87;97.94
59877;BME280;45749;51.140;17.184;2023-01-28T14:32:11;101101.72;;;-0.87;97.65
59877;BME280;45749;51.140;17.184;2023-01-28T14:34:40;101093.94;;;-0.87;97.56
59877;BME280;45749;51.140;17.184;2023-01-28T14:37:09;101100.81;;;-0.86;97.43
59877;BME280;45749;51.140;17.184;2023-01-28T14:39:46;101095.63;;;-0.86;97.10
59877;BME280;45749;51.140;17.184;2023-01-28T14:42:21;101090.56;;;-0.94;95.94
59877;BME280;45749;51.140;17.184;2023-01-28T14:58:26;101114.81;;;-1.00;96.01
59877;BME280;45749;51.140;17.184;2023-01-28T15:00:56;101113.09;;;-1.02;94.82
59877;BME280;45749;51.140;17.184;2023-01-28T15:03:27;101112.25;;;-1.03;95.18
59877;BME280;45749;51.140;17.184;2023-01-28T15:06:02;101113.16;;;-1.04;95.73
59877;BME280;45749;51.140;17.184;2023-01-28T15:08:28;101116.59;;;-1.03;95.52
59877;BME280;45749;51.140;17.184;2023-01-28T15:10:56;101126.94;;;-1.03;95.12
59877;BME280;45749;51.140;17.184;2023-01-28T15:13:28;101121.78;;;-1.05;95.59
59877;BME280;45749;51.140;17.184;2023-01-28T15:15:54;101129.56;;;-1.06;94.97
59877;BME280;45749;51.140;17.184;2023-01-28T15:18:40;101130.50;;;-1.10;94.34
59877;BME280;45749;51.140;17.184;2023-01-28T15:21:06;101128.78;;;-1.11;95.32
59877;BME280;45749;51.140;17.184;2023-01-28T15:23:34;101122.72;;;-1.12;95.00